Tylersport, PA (18971)

1:57 PM EDT on August 26, 2016 (GMT -0400)
Woodview Drive | | Change Station

Elev 531 ft 40.41 °N, 75.38 °W | Updated 4 minutes ago

Partly Cloudy
Partly Cloudy
86.4 °F
Feels Like 93 °F
N
6.2
Wind Variable Wind from SW
Gusts 13.0 mph

Today
High -- | Low -- °F
--% Chance of Precip.
Yesterday
High -- | Low -- °F
Precip. -- in
Pressure 30.05 in
Visibility 10.0 miles
Clouds Few 4100 ft
Heat Index 93 °F
Dew Point 73 °F
Humidity 63%
Rainfall Not available.
Snow Depth Not available.
6:23 AM 7:42 PM
Waning Crescent, 32% visible
METAR KUKT 261735Z AUTO 35008KT 280V010 10SM FEW041 32/20 A3005 RMK AO1
Pressure 30.05 in
Visibility 10.0 miles
Clouds Few 4100 ft
Heat Index 93 °F
Dew Point 73 °F
Humidity 63%
Rainfall Not available.
Snow Depth Not available.
6:23 AM 7:42 PM
Waning Crescent, 32% visible
METAR KUKT 261735Z AUTO 35008KT 280V010 10SM FEW041 32/20 A3005 RMK AO1

10-Day Weather Forecast

Almanac

Astronomy

Aug. 26, 2016 Rise Set
Actual Time
Civil Twilight
Nautical Twilight
Astronomical Twilight
Moon
Length of Visible Light
Length of Day
Tomorrow will be .
, % of the Moon is Illuminated

Today's Extremes

State Highs State Lows

Community

WunderPhotos

Upload Photos

1,935,152 photos uploaded!

WunderBlog® & News

Nearby

Air Quality

  Air Quality AQ Index Pollutant
Not available.

Snow Depth

Station Depth Elevation

Earthquake Activity

City Distance Mag. Time & Date
Minimum magnitude displayed is 2.5.

Coastal Water Temperatures

Place Temperature

Stations

Nearby Weather Stations

Station Location Temp. Windchill Dew Point Humidity Wind Precip. Elev Updated Type
                   

Watches & Warnings

There are currently no watches in effect.